Airport Name : Umea

Other Name : Umea

ICAO : ESNU

IATA : UME

FAA :

Latitude : 63.791828

Longitude : 20.282758

Country : Sweden

Local Date and Time : 20 Apr 2021 15:50

 

TAF (Terminal Aerodrome Forecast)

TAF ESNU 201130Z 2012/2021 17008KT CAVOK

 

METAR (METeorological Aerodrome Report)

ESNU 201320Z 19007KT 160V230 CAVOK 11/M02 Q1017

ESNU 201250Z 16008KT CAVOK 11/M02 Q1017

ESNU 201220Z 17008KT 140V200 CAVOK 10/M02 Q1018

ESNU 201150Z 15009KT CAVOK 10/01 Q1018

ESNU 201120Z 15009KT CAVOK 10/M00 Q1018

ESNU 201050Z 15009KT CAVOK 11/M00 Q1019

ESNU 201020Z 16008KT CAVOK 11/M01 Q1019

To Charter a Jet Click here.